createdAt,value
2019-03-28T00:00:29.463Z,0.30
2019-03-28T00:01:29.455Z,0.40
2019-03-28T00:02:29.439Z,0.40
2019-03-28T00:03:29.427Z,0.30
2019-03-28T00:04:29.438Z,0.30
2019-03-28T00:05:30.194Z,0.30
2019-03-28T00:06:30.210Z,0.40
2019-03-28T00:07:29.383Z,0.30
2019-03-28T00:08:29.372Z,0.40
2019-03-28T00:09:29.375Z,0.40
2019-03-28T00:10:29.351Z,0.40
2019-03-28T00:11:29.343Z,0.50
2019-03-28T00:12:29.329Z,0.50
2019-03-28T00:13:30.117Z,0.30
2019-03-28T00:14:29.340Z,0.30
2019-03-28T00:15:29.296Z,0.60
2019-03-28T00:16:29.327Z,0.30
2019-03-28T00:17:29.292Z,0.30
2019-03-28T00:18:29.272Z,0.30
2019-03-28T00:19:29.289Z,0.30
2019-03-28T00:20:29.246Z,0.50
2019-03-28T00:21:29.252Z,0.30
2019-03-28T00:22:29.229Z,0.50
2019-03-28T00:23:29.211Z,0.50
2019-03-28T00:24:29.700Z,0.40
2019-03-28T00:25:29.188Z,0.40
2019-03-28T00:26:30.667Z,0.40
2019-03-28T00:27:29.171Z,0.30
2019-03-28T00:28:29.158Z,0.40
2019-03-28T00:29:29.153Z,0.40
2019-03-28T00:30:29.152Z,0.60
2019-03-28T00:31:29.692Z,0.40
2019-03-28T00:32:29.128Z,0.50
2019-03-28T00:33:29.104Z,0.40
2019-03-28T00:34:29.090Z,0.50
2019-03-28T00:35:29.105Z,0.30
2019-03-28T00:36:29.066Z,0.60
2019-03-28T00:37:29.075Z,0.40
2019-03-28T00:38:29.044Z,0.40
2019-03-28T00:39:29.036Z,0.40
2019-03-28T00:40:29.042Z,0.40
2019-03-28T00:41:29.031Z,0.30
2019-03-28T00:42:29.026Z,0.40
2019-03-28T00:43:28.995Z,0.30
2019-03-28T00:44:28.983Z,0.50
2019-03-28T00:45:29.213Z,0.40
2019-03-28T00:46:28.981Z,0.40
2019-03-28T00:47:28.954Z,0.50
2019-03-28T00:48:28.947Z,0.40
2019-03-28T00:49:28.933Z,0.40
2019-03-28T00:50:29.209Z,0.40
2019-03-28T00:51:29.697Z,0.30
2019-03-28T00:52:29.713Z,0.40
2019-03-28T00:53:28.881Z,0.30
2019-03-28T00:54:28.872Z,0.50
2019-03-28T00:55:28.879Z,0.60
2019-03-28T00:56:38.060Z,0.30
2019-03-28T00:57:28.841Z,0.40
2019-03-28T00:58:28.846Z,0.30
2019-03-28T00:59:28.824Z,0.50
2019-03-28T01:00:28.824Z,0.40
2019-03-28T01:01:29.689Z,0.60
2019-03-28T01:02:28.786Z,0.30
2019-03-28T01:03:28.776Z,0.30
2019-03-28T01:04:28.773Z,0.50
2019-03-28T01:05:29.214Z,0.30
2019-03-28T01:06:28.744Z,0.40
2019-03-28T01:07:28.744Z,0.40
2019-03-28T01:08:28.722Z,0.60
2019-03-28T01:09:29.691Z,0.30
2019-03-28T01:10:29.207Z,0.30
2019-03-28T01:11:28.683Z,0.40
2019-03-28T01:12:28.711Z,0.50
2019-03-28T01:13:28.667Z,0.60
2019-03-28T01:14:28.660Z,0.40
2019-03-28T01:15:28.674Z,0.20
2019-03-28T01:16:28.633Z,0.40
2019-03-28T01:17:28.641Z,0.30
2019-03-28T01:18:28.616Z,0.40
2019-03-28T01:19:29.209Z,0.40
2019-03-28T01:20:28.711Z,0.40
2019-03-28T01:21:28.594Z,0.50
2019-03-28T01:22:28.586Z,0.40
2019-03-28T01:23:28.556Z,0.30
2019-03-28T01:24:28.548Z,0.40
2019-03-28T01:25:28.545Z,0.40
2019-03-28T01:26:29.192Z,0.40
2019-03-28T01:27:28.543Z,0.40
2019-03-28T01:28:29.194Z,0.60
2019-03-28T01:29:29.193Z,0.50
2019-03-28T01:30:28.502Z,0.30
2019-03-28T01:31:28.467Z,0.40
2019-03-28T01:32:28.489Z,0.40
2019-03-28T01:33:28.478Z,0.40
2019-03-28T01:34:28.444Z,0.40
2019-03-28T01:35:28.443Z,0.90
2019-03-28T01:36:28.427Z,0.40
2019-03-28T01:37:29.498Z,0.30
2019-03-28T01:38:28.394Z,0.50
2019-03-28T01:39:28.384Z,0.60
2019-03-28T01:40:28.713Z,0.50
2019-03-28T01:41:29.196Z,0.50
2019-03-28T01:42:29.234Z,0.50
2019-03-28T01:43:28.357Z,0.60
2019-03-28T01:44:28.335Z,0.50
2019-03-28T01:45:28.803Z,0.40
2019-03-28T01:46:29.192Z,0.40
2019-03-28T01:47:28.310Z,0.60
2019-03-28T01:48:28.289Z,0.40
2019-03-28T01:49:29.198Z,0.60
2019-03-28T01:50:28.711Z,0.50
2019-03-28T01:51:28.289Z,0.60
2019-03-28T01:52:28.255Z,0.50
2019-03-28T01:53:28.229Z,0.60
2019-03-28T01:54:28.273Z,0.50
2019-03-28T01:55:28.220Z,0.70
2019-03-28T01:56:28.207Z,0.40
2019-03-28T01:57:28.203Z,0.50
2019-03-28T01:58:28.200Z,0.60
2019-03-28T01:59:28.167Z,0.60
2019-03-28T02:00:28.223Z,0.60
2019-03-28T02:01:28.143Z,0.50
2019-03-28T02:02:28.145Z,0.50
2019-03-28T02:03:28.121Z,0.60
2019-03-28T02:04:28.125Z,0.60
2019-03-28T02:05:28.129Z,0.50
2019-03-28T02:06:28.105Z,0.60
2019-03-28T02:07:28.091Z,0.60
2019-03-28T02:08:28.694Z,0.40
2019-03-28T02:09:28.694Z,0.60
2019-03-28T02:10:28.053Z,0.40
2019-03-28T02:11:28.063Z,0.40
2019-03-28T02:12:28.709Z,0.60
2019-03-28T02:13:28.015Z,0.60
2019-03-28T02:14:28.008Z,0.40
2019-03-28T02:15:28.222Z,0.40
2019-03-28T02:16:27.983Z,0.50
2019-03-28T02:17:27.976Z,0.50
2019-03-28T02:18:27.961Z,0.50
2019-03-28T02:19:27.949Z,0.50
2019-03-28T02:20:27.973Z,0.60
2019-03-28T02:21:27.929Z,0.50
2019-03-28T02:22:27.955Z,0.50
2019-03-28T02:23:28.696Z,0.60
2019-03-28T02:24:27.903Z,0.60
2019-03-28T02:25:27.909Z,0.50
2019-03-28T02:26:27.883Z,0.50
2019-03-28T02:27:27.866Z,0.60
2019-03-28T02:28:27.870Z,0.50
2019-03-28T02:29:27.845Z,0.50
2019-03-28T02:30:27.862Z,0.60
2019-03-28T02:31:27.822Z,0.40
2019-03-28T02:32:27.832Z,0.50
2019-03-28T02:33:27.809Z,0.60
2019-03-28T02:34:27.809Z,0.60
2019-03-28T02:35:27.798Z,0.60
2019-03-28T02:36:27.766Z,0.40
2019-03-28T02:37:27.754Z,0.50
2019-03-28T02:38:27.770Z,0.60
2019-03-28T02:39:27.738Z,0.40
2019-03-28T02:40:27.733Z,0.50
2019-03-28T02:41:27.730Z,0.40
2019-03-28T02:42:27.914Z,0.40
2019-03-28T02:43:27.708Z,0.40
2019-03-28T02:44:27.692Z,0.70
2019-03-28T02:45:27.681Z,0.30
2019-03-28T02:46:27.660Z,0.70
2019-03-28T02:47:27.652Z,0.70
2019-03-28T02:48:27.980Z,0.50
2019-03-28T02:49:27.631Z,0.40
2019-03-28T02:50:27.629Z,0.40
2019-03-28T02:51:27.609Z,0.40
2019-03-28T02:52:28.211Z,0.50
2019-03-28T02:53:27.597Z,0.40
2019-03-28T02:54:27.575Z,0.70
2019-03-28T02:55:27.600Z,0.40
2019-03-28T02:56:27.565Z,0.30
2019-03-28T02:57:40.984Z,0.40
2019-03-28T02:58:27.545Z,0.60
2019-03-28T02:59:28.507Z,0.60
2019-03-28T03:00:27.520Z,0.40
2019-03-28T03:01:30.279Z,0.40
2019-03-28T03:02:27.499Z,0.40
2019-03-28T03:03:27.507Z,0.60
2019-03-28T03:04:27.471Z,0.50
2019-03-28T03:05:27.469Z,0.60
2019-03-28T03:06:27.455Z,0.40
2019-03-28T03:07:27.487Z,0.50
2019-03-28T03:08:27.428Z,0.30
2019-03-28T03:09:27.419Z,0.50
2019-03-28T03:10:27.434Z,0.40
2019-03-28T03:11:27.396Z,0.30
2019-03-28T03:12:27.852Z,0.50
2019-03-28T03:13:27.376Z,0.40
2019-03-28T03:14:27.365Z,0.30
2019-03-28T03:15:27.733Z,0.50
2019-03-28T03:16:27.349Z,0.40
2019-03-28T03:17:27.342Z,0.60
2019-03-28T03:18:27.342Z,0.40
2019-03-28T03:19:27.315Z,0.30
2019-03-28T03:20:27.313Z,0.30
2019-03-28T03:21:27.297Z,0.50
2019-03-28T03:22:27.385Z,0.40
2019-03-28T03:23:27.281Z,0.40
2019-03-28T03:24:27.261Z,0.40
2019-03-28T03:25:27.265Z,0.40
2019-03-28T03:26:27.251Z,0.30
2019-03-28T03:27:27.242Z,0.40
2019-03-28T03:28:27.230Z,0.50
2019-03-28T03:29:27.203Z,0.40
2019-03-28T03:30:27.228Z,0.40
2019-03-28T03:31:27.183Z,0.50
2019-03-28T03:32:27.182Z,0.50
2019-03-28T03:33:27.198Z,0.50
2019-03-28T03:34:27.183Z,0.30
2019-03-28T03:35:27.137Z,0.40
2019-03-28T03:36:27.144Z,0.40
2019-03-28T03:37:27.123Z,0.50
2019-03-28T03:38:27.718Z,0.40
2019-03-28T03:39:27.102Z,0.40
2019-03-28T03:40:27.086Z,0.30
2019-03-28T03:41:27.092Z,0.30
2019-03-28T03:42:27.075Z,0.30
2019-03-28T03:43:27.068Z,0.40
2019-03-28T03:44:27.046Z,0.40
2019-03-28T03:45:27.030Z,0.40
2019-03-28T03:46:27.634Z,0.30
2019-03-28T03:47:27.012Z,0.40
2019-03-28T03:48:27.001Z,0.40
2019-03-28T03:49:27.003Z,0.50
2019-03-28T03:50:26.981Z,0.40
2019-03-28T03:51:26.980Z,0.40
2019-03-28T03:52:27.007Z,0.40
2019-03-28T03:53:26.950Z,0.40
2019-03-28T03:54:26.946Z,0.40
2019-03-28T03:55:27.714Z,0.30
2019-03-28T03:56:26.955Z,0.50
2019-03-28T03:57:26.907Z,0.40
2019-03-28T03:58:26.907Z,0.50
2019-03-28T03:59:26.886Z,0.40
2019-03-28T04:00:26.885Z,0.50
2019-03-28T04:01:26.879Z,0.60
2019-03-28T04:02:26.853Z,0.40
2019-03-28T04:03:26.840Z,0.30
2019-03-28T04:04:26.822Z,0.40
2019-03-28T04:05:26.818Z,0.50
2019-03-28T04:06:26.821Z,0.40
2019-03-28T04:07:27.724Z,0.30
2019-03-28T04:08:27.149Z,0.40
2019-03-28T04:09:26.777Z,0.40
2019-03-28T04:10:26.763Z,0.40
2019-03-28T04:11:26.783Z,0.40
2019-03-28T04:12:27.703Z,0.40
2019-03-28T04:13:26.750Z,0.40
2019-03-28T04:14:27.721Z,0.30
2019-03-28T04:15:26.713Z,0.30
2019-03-28T04:16:26.728Z,0.40
2019-03-28T04:17:26.707Z,0.40
2019-03-28T04:18:26.691Z,0.30
2019-03-28T04:19:26.798Z,0.30
2019-03-28T04:20:26.656Z,0.50
2019-03-28T04:21:26.658Z,0.50
2019-03-28T04:22:26.636Z,0.40
2019-03-28T04:23:26.625Z,0.50
2019-03-28T04:24:27.210Z,0.40
2019-03-28T04:25:27.208Z,0.40
2019-03-28T04:26:26.631Z,0.40
2019-03-28T04:27:26.585Z,0.30
2019-03-28T04:28:32.157Z,0.40
2019-03-28T04:29:26.565Z,0.40
2019-03-28T04:30:26.596Z,0.40
2019-03-28T04:31:26.563Z,0.40
2019-03-28T04:32:26.533Z,0.40
2019-03-28T04:33:26.519Z,0.30
2019-03-28T04:34:27.229Z,0.30
2019-03-28T04:35:26.503Z,0.30
2019-03-28T04:36:26.733Z,0.40
2019-03-28T04:37:26.494Z,0.30
2019-03-28T04:38:26.465Z,0.30
2019-03-28T04:39:26.469Z,0.40
2019-03-28T04:40:26.448Z,0.40
2019-03-28T04:41:26.470Z,0.30
2019-03-28T04:42:26.441Z,0.40
2019-03-28T04:43:26.412Z,0.30
2019-03-28T04:44:26.412Z,0.30
2019-03-28T04:45:26.396Z,0.40
2019-03-28T04:46:26.403Z,0.40
2019-03-28T04:47:26.412Z,0.30
2019-03-28T04:48:27.262Z,0.40
2019-03-28T04:49:26.367Z,0.30
2019-03-28T04:50:26.352Z,0.40
2019-03-28T04:51:26.891Z,0.40
2019-03-28T04:52:27.209Z,0.40
2019-03-28T04:53:29.502Z,0.30
2019-03-28T04:54:26.313Z,0.50
2019-03-28T04:55:26.318Z,0.30
2019-03-28T04:56:26.284Z,0.70
2019-03-28T04:57:26.261Z,0.40
2019-03-28T04:58:26.268Z,0.30
2019-03-28T04:59:27.217Z,0.40
2019-03-28T05:00:26.249Z,0.50
2019-03-28T05:01:26.725Z,0.40
2019-03-28T05:02:26.213Z,0.30
2019-03-28T05:03:26.709Z,0.50
2019-03-28T05:04:26.722Z,0.40
2019-03-28T05:05:26.274Z,0.20
2019-03-28T05:06:26.192Z,0.30
2019-03-28T05:07:26.163Z,0.30
2019-03-28T05:08:26.151Z,0.50
2019-03-28T05:09:26.155Z,0.30
2019-03-28T05:10:26.139Z,0.30
2019-03-28T05:11:26.139Z,0.30
2019-03-28T05:12:26.168Z,0.30
2019-03-28T05:13:26.091Z,0.40
2019-03-28T05:14:26.101Z,0.70
2019-03-28T05:15:26.087Z,0.40
2019-03-28T05:16:26.072Z,0.30
2019-03-28T05:17:26.050Z,0.50
2019-03-28T05:18:26.041Z,0.40
2019-03-28T05:19:26.040Z,0.40
2019-03-28T05:20:26.018Z,0.40
2019-03-28T05:21:26.223Z,0.40
2019-03-28T05:22:26.015Z,0.30
2019-03-28T05:23:25.984Z,0.30
2019-03-28T05:24:25.988Z,0.40
2019-03-28T05:25:25.968Z,0.40
2019-03-28T05:26:25.966Z,0.30
2019-03-28T05:27:25.966Z,0.40
2019-03-28T05:28:26.707Z,0.40
2019-03-28T05:29:26.772Z,0.40
2019-03-28T05:30:25.909Z,0.30
2019-03-28T05:31:25.910Z,0.30
2019-03-28T05:32:26.288Z,0.40
2019-03-28T05:33:25.893Z,0.30
2019-03-28T05:34:25.897Z,0.40
2019-03-28T05:35:26.367Z,0.40
2019-03-28T05:36:25.862Z,0.30
2019-03-28T05:37:25.838Z,0.40
2019-03-28T05:38:25.848Z,0.40
2019-03-28T05:39:26.727Z,0.40
2019-03-28T05:40:25.818Z,0.40
2019-03-28T05:41:25.816Z,0.40
2019-03-28T05:42:25.784Z,0.30
2019-03-28T05:43:25.778Z,0.30
2019-03-28T05:44:25.783Z,0.40
2019-03-28T05:45:25.754Z,0.40
2019-03-28T05:46:25.757Z,0.40
2019-03-28T05:47:25.755Z,0.30
2019-03-28T05:48:25.734Z,0.20
2019-03-28T05:49:25.728Z,0.40
2019-03-28T05:50:25.700Z,0.30
2019-03-28T05:51:25.761Z,0.50
2019-03-28T05:52:25.682Z,0.40
2019-03-28T05:53:25.669Z,0.40
2019-03-28T05:54:26.222Z,0.20
2019-03-28T05:55:26.214Z,0.30
2019-03-28T05:56:25.652Z,0.30
2019-03-28T05:57:26.212Z,0.40
2019-03-28T05:58:25.623Z,0.50
2019-03-28T05:59:25.611Z,0.40
2019-03-28T06:00:25.606Z,0.30
2019-03-28T06:01:25.597Z,0.40
2019-03-28T06:02:25.601Z,0.30
2019-03-28T06:03:25.585Z,0.40
2019-03-28T06:04:25.551Z,0.30
2019-03-28T06:05:26.361Z,0.30
2019-03-28T06:06:25.547Z,0.50
2019-03-28T06:07:26.239Z,0.30
2019-03-28T06:08:26.211Z,0.60
2019-03-28T06:09:26.214Z,0.40
2019-03-28T06:10:25.551Z,0.30
2019-03-28T06:11:25.499Z,0.50
2019-03-28T06:12:25.473Z,0.60
2019-03-28T06:13:26.213Z,0.30
2019-03-28T06:14:26.215Z,0.30
2019-03-28T06:15:25.440Z,0.40
2019-03-28T06:16:25.465Z,0.30
2019-03-28T06:17:25.414Z,0.30
2019-03-28T06:18:25.427Z,0.30
2019-03-28T06:19:25.404Z,0.40
2019-03-28T06:20:25.399Z,0.30
2019-03-28T06:21:25.391Z,0.30
2019-03-28T06:22:26.231Z,0.40
2019-03-28T06:23:25.349Z,0.30
2019-03-28T06:24:26.258Z,0.30
2019-03-28T06:25:25.341Z,0.30
2019-03-28T06:26:25.328Z,0.30
2019-03-28T06:27:25.314Z,0.30
2019-03-28T06:28:25.431Z,0.30
2019-03-28T06:29:25.933Z,0.30
2019-03-28T06:30:26.213Z,0.40
2019-03-28T06:31:25.283Z,0.40
2019-03-28T06:32:25.257Z,0.40
2019-03-28T06:33:26.216Z,0.40
2019-03-28T06:34:25.252Z,0.40
2019-03-28T06:35:25.238Z,0.30
2019-03-28T06:36:26.713Z,0.20
2019-03-28T06:37:25.731Z,0.30
2019-03-28T06:38:25.195Z,0.30
2019-03-28T06:39:25.184Z,0.40
2019-03-28T06:40:25.168Z,0.30
2019-03-28T06:41:25.186Z,0.40
2019-03-28T06:42:25.717Z,0.40
2019-03-28T06:43:25.718Z,0.40
2019-03-28T06:44:25.149Z,0.40
2019-03-28T06:45:25.113Z,0.50
2019-03-28T06:46:25.108Z,0.40
2019-03-28T06:47:25.237Z,0.40
2019-03-28T06:48:25.085Z,0.40
2019-03-28T06:49:25.090Z,0.40
2019-03-28T06:50:25.071Z,0.40
2019-03-28T06:51:25.055Z,0.50
2019-03-28T06:52:25.231Z,0.40
2019-03-28T06:53:25.036Z,0.30
2019-03-28T06:54:25.734Z,0.40
2019-03-28T06:55:25.910Z,0.30
2019-03-28T06:56:25.566Z,0.20
2019-03-28T06:57:25.003Z,0.30
2019-03-28T06:58:24.974Z,0.40
2019-03-28T06:59:36.593Z,0.30
2019-03-28T07:00:24.960Z,0.30
2019-03-28T07:01:24.966Z,0.40
2019-03-28T07:02:24.945Z,0.40
2019-03-28T07:03:24.968Z,0.30
2019-03-28T07:04:24.918Z,0.30
2019-03-28T07:05:25.738Z,0.30
2019-03-28T07:06:25.752Z,0.40
2019-03-28T07:07:24.930Z,0.30
2019-03-28T07:08:25.371Z,0.20
2019-03-28T07:09:24.861Z,0.30
2019-03-28T07:10:25.747Z,0.20
2019-03-28T07:11:24.905Z,0.40
2019-03-28T07:12:24.863Z,0.30
2019-03-28T07:13:25.732Z,0.40
2019-03-28T07:14:24.807Z,0.30
2019-03-28T07:15:24.797Z,0.30
2019-03-28T07:16:24.786Z,0.40
2019-03-28T07:17:25.231Z,0.40
2019-03-28T07:18:24.796Z,0.50
2019-03-28T07:19:24.750Z,0.30
2019-03-28T07:20:24.740Z,0.30
2019-03-28T07:21:24.732Z,0.30
2019-03-28T07:22:24.736Z,0.40
2019-03-28T07:23:24.710Z,0.30
2019-03-28T07:24:24.705Z,0.40
2019-03-28T07:25:25.698Z,0.40
2019-03-28T07:26:24.675Z,0.30
2019-03-28T07:27:24.762Z,0.40
2019-03-28T07:28:24.676Z,0.30
2019-03-28T07:29:25.528Z,0.40
2019-03-28T07:30:24.642Z,0.40
2019-03-28T07:31:24.628Z,0.40
2019-03-28T07:32:24.620Z,0.50
2019-03-28T07:33:24.598Z,0.40
2019-03-28T07:34:24.586Z,0.40
2019-03-28T07:35:24.585Z,0.30
2019-03-28T07:36:24.580Z,0.30
2019-03-28T07:37:27.831Z,0.30
2019-03-28T07:38:24.542Z,0.60
2019-03-28T07:39:24.534Z,0.40
2019-03-28T07:40:25.708Z,0.40
2019-03-28T07:41:24.544Z,0.30
2019-03-28T07:42:24.510Z,0.30
2019-03-28T07:43:25.376Z,0.50
2019-03-28T07:44:25.222Z,0.40
2019-03-28T07:45:24.466Z,0.30
2019-03-28T07:46:24.472Z,0.50
2019-03-28T07:47:24.482Z,0.30
2019-03-28T07:48:25.222Z,0.40
2019-03-28T07:49:24.419Z,0.20
2019-03-28T07:50:24.410Z,0.30
2019-03-28T07:51:25.218Z,0.40
2019-03-28T07:52:24.413Z,0.40
2019-03-28T07:53:24.376Z,0.50
2019-03-28T07:54:24.376Z,0.40
2019-03-28T07:55:25.223Z,0.40
2019-03-28T07:56:24.346Z,0.30
2019-03-28T07:57:24.348Z,0.30
2019-03-28T07:58:24.331Z,0.30
2019-03-28T07:59:24.320Z,0.30
2019-03-28T08:00:24.298Z,0.20
2019-03-28T08:01:24.292Z,0.30
2019-03-28T08:02:24.300Z,0.40
2019-03-28T08:03:24.290Z,0.30
2019-03-28T08:04:24.270Z,0.50
2019-03-28T08:05:24.268Z,0.40
2019-03-28T08:06:24.238Z,0.20
2019-03-28T08:07:24.741Z,0.40
2019-03-28T08:08:24.245Z,0.30
2019-03-28T08:09:36.018Z,0.30
2019-03-28T08:10:24.198Z,0.30
2019-03-28T08:11:24.279Z,0.40
2019-03-28T08:12:24.239Z,0.40
2019-03-28T08:13:24.163Z,0.30
2019-03-28T08:14:24.152Z,0.30
2019-03-28T08:15:24.137Z,0.50
2019-03-28T08:16:24.120Z,0.40
2019-03-28T08:17:24.117Z,0.20
2019-03-28T08:18:24.098Z,0.30
2019-03-28T08:19:24.721Z,0.20
2019-03-28T08:20:24.102Z,0.20
2019-03-28T08:21:24.736Z,0.30
2019-03-28T08:22:24.065Z,0.30
2019-03-28T08:23:24.043Z,0.40
2019-03-28T08:24:24.724Z,0.20
2019-03-28T08:25:24.739Z,0.30
2019-03-28T08:26:24.727Z,0.30
2019-03-28T08:27:24.017Z,0.30
2019-03-28T08:28:23.988Z,0.30
2019-03-28T08:29:23.980Z,0.30
2019-03-28T08:30:24.013Z,0.20
2019-03-28T08:31:24.727Z,0.40
2019-03-28T08:32:23.983Z,0.30
2019-03-28T08:33:23.965Z,0.40
2019-03-28T08:34:23.943Z,0.30
2019-03-28T08:35:23.920Z,0.50
2019-03-28T08:36:24.731Z,0.30
2019-03-28T08:37:23.920Z,0.50
2019-03-28T08:38:23.878Z,0.30
2019-03-28T08:39:23.869Z,0.40
2019-03-28T08:40:24.771Z,0.60
2019-03-28T08:41:24.720Z,0.40
2019-03-28T08:42:24.268Z,0.60
2019-03-28T08:43:23.840Z,0.50
2019-03-28T08:44:23.819Z,0.50
2019-03-28T08:45:23.809Z,0.40
2019-03-28T08:46:24.733Z,0.60
2019-03-28T08:47:24.235Z,0.50
2019-03-28T08:48:24.719Z,0.50
2019-03-28T08:49:24.725Z,0.50
2019-03-28T08:50:23.744Z,0.70
2019-03-28T08:51:27.121Z,0.60
2019-03-28T08:52:23.732Z,0.70
2019-03-28T08:53:23.716Z,1.10
2019-03-28T08:54:23.699Z,1.00
2019-03-28T08:55:23.715Z,1.40
2019-03-28T08:56:23.692Z,1.00
2019-03-28T08:57:23.750Z,0.90
2019-03-28T08:58:24.236Z,1.00
2019-03-28T08:59:23.656Z,0.70
2019-03-28T09:00:33.041Z,0.80
2019-03-28T09:01:23.701Z,0.80
2019-03-28T09:02:23.665Z,0.80
2019-03-28T09:03:23.597Z,0.80
2019-03-28T09:04:23.588Z,0.90
2019-03-28T09:05:24.234Z,1.00
2019-03-28T09:06:23.582Z,0.80
2019-03-28T09:07:23.558Z,1.00
2019-03-28T09:08:23.646Z,1.00
2019-03-28T09:09:23.539Z,0.80
2019-03-28T09:10:24.255Z,0.90
2019-03-28T09:11:23.538Z,0.70
2019-03-28T09:12:24.225Z,0.90
2019-03-28T09:13:23.505Z,0.70
2019-03-28T09:14:23.477Z,0.90
2019-03-28T09:15:23.507Z,0.80
2019-03-28T09:16:24.262Z,1.00
2019-03-28T09:17:23.954Z,0.80
2019-03-28T09:18:23.756Z,0.60
2019-03-28T09:19:23.424Z,0.70
2019-03-28T09:20:23.415Z,0.80
2019-03-28T09:21:23.433Z,0.60
2019-03-28T09:22:23.414Z,0.60
2019-03-28T09:23:23.394Z,0.70
2019-03-28T09:24:23.371Z,0.60
2019-03-28T09:25:23.359Z,1.00
2019-03-28T09:26:24.250Z,0.70
2019-03-28T09:27:24.228Z,0.70
2019-03-28T09:28:23.747Z,0.60
2019-03-28T09:29:23.317Z,0.90
2019-03-28T09:30:23.304Z,0.80
2019-03-28T09:31:23.295Z,0.70
2019-03-28T09:32:23.280Z,0.70
2019-03-28T09:33:23.739Z,0.70
2019-03-28T09:34:23.288Z,0.70
2019-03-28T09:35:23.271Z,1.00
2019-03-28T09:36:23.253Z,0.60
2019-03-28T09:37:23.248Z,0.50
2019-03-28T09:38:23.253Z,0.80
2019-03-28T09:39:24.882Z,0.60
2019-03-28T09:40:23.739Z,0.50
2019-03-28T09:41:23.197Z,0.80
2019-03-28T09:42:23.174Z,0.70
2019-03-28T09:43:23.249Z,0.60
2019-03-28T09:44:23.148Z,0.70
2019-03-28T09:45:23.726Z,0.60
2019-03-28T09:46:23.170Z,0.90
2019-03-28T09:47:23.162Z,0.70
2019-03-28T09:48:23.239Z,0.70
2019-03-28T09:49:23.094Z,0.50
2019-03-28T09:50:23.083Z,0.50
2019-03-28T09:51:23.100Z,0.70
2019-03-28T09:52:23.089Z,0.60
2019-03-28T09:53:23.056Z,0.30
2019-03-28T09:54:23.745Z,0.60
2019-03-28T09:55:23.034Z,0.70
2019-03-28T09:56:23.077Z,0.70
2019-03-28T09:57:23.018Z,0.80
2019-03-28T09:58:23.001Z,0.60
2019-03-28T09:59:22.985Z,0.70
2019-03-28T10:00:23.726Z,0.80
2019-03-28T10:01:23.744Z,0.60
2019-03-28T10:02:22.978Z,0.50
2019-03-28T10:03:22.960Z,0.60
2019-03-28T10:04:22.936Z,0.60
2019-03-28T10:05:22.922Z,0.60
2019-03-28T10:06:23.754Z,0.70
2019-03-28T10:07:22.902Z,0.70
2019-03-28T10:08:22.903Z,0.70
2019-03-28T10:09:22.882Z,0.50
2019-03-28T10:10:22.880Z,0.50
2019-03-28T10:11:22.884Z,0.60
2019-03-28T10:12:22.846Z,0.70
2019-03-28T10:13:22.850Z,0.60
2019-03-28T10:14:22.842Z,0.50
2019-03-28T10:15:22.818Z,0.80
2019-03-28T10:16:22.801Z,0.70
2019-03-28T10:17:22.787Z,0.70
2019-03-28T10:18:22.785Z,0.60
2019-03-28T10:19:22.778Z,0.60
2019-03-28T10:20:22.777Z,1.10
2019-03-28T10:21:23.740Z,0.60
2019-03-28T10:22:23.758Z,0.70
2019-03-28T10:23:22.743Z,0.50
2019-03-28T10:24:22.722Z,0.70
2019-03-28T10:25:22.713Z,0.60
2019-03-28T10:26:23.279Z,0.70
2019-03-28T10:27:22.681Z,0.60
2019-03-28T10:28:22.677Z,0.60
2019-03-28T10:29:22.665Z,0.70
2019-03-28T10:30:22.660Z,1.10
2019-03-28T10:31:22.666Z,0.60
2019-03-28T10:32:22.626Z,1.00
2019-03-28T10:33:22.650Z,0.70
2019-03-28T10:34:22.617Z,0.50
2019-03-28T10:35:22.609Z,0.70
2019-03-28T10:36:23.241Z,0.70
2019-03-28T10:37:22.590Z,0.70
2019-03-28T10:38:22.794Z,0.50
2019-03-28T10:39:22.569Z,0.70
2019-03-28T10:40:23.245Z,0.60
2019-03-28T10:41:25.707Z,0.60
2019-03-28T10:42:23.271Z,0.60
2019-03-28T10:43:22.759Z,0.70
2019-03-28T10:44:22.515Z,0.60
2019-03-28T10:45:22.504Z,0.60
2019-03-28T10:46:22.514Z,0.50
2019-03-28T10:47:23.243Z,0.60
2019-03-28T10:48:23.553Z,1.10
2019-03-28T10:49:22.461Z,0.60
2019-03-28T10:50:22.451Z,1.00
2019-03-28T10:51:22.478Z,0.60
2019-03-28T10:52:22.427Z,0.60
2019-03-28T10:53:22.761Z,0.80
2019-03-28T10:54:25.715Z,0.70
2019-03-28T10:55:22.397Z,0.50
2019-03-28T10:56:24.171Z,0.60
2019-03-28T10:57:29.800Z,0.90
2019-03-28T10:58:22.395Z,0.70
2019-03-28T10:59:23.795Z,0.50
2019-03-28T11:00:24.351Z,0.70
2019-03-28T11:01:41.427Z,0.60
2019-03-28T11:02:22.329Z,0.70
2019-03-28T11:03:22.325Z,0.60
2019-03-28T11:04:22.678Z,0.60
2019-03-28T11:05:22.305Z,0.80
2019-03-28T11:06:22.282Z,0.80
2019-03-28T11:07:22.279Z,0.90
2019-03-28T11:08:22.260Z,0.50
2019-03-28T11:09:22.245Z,0.60
2019-03-28T11:10:22.775Z,0.70
2019-03-28T11:11:22.597Z,0.60
2019-03-28T11:12:22.214Z,0.70
2019-03-28T11:13:22.775Z,0.70
2019-03-28T11:14:22.750Z,0.60
2019-03-28T11:15:22.189Z,0.70
2019-03-28T11:16:22.172Z,0.80
2019-03-28T11:17:22.159Z,0.70
2019-03-28T11:18:22.186Z,0.50
2019-03-28T11:19:22.336Z,0.60
2019-03-28T11:20:22.124Z,0.70
2019-03-28T11:21:22.131Z,0.80
2019-03-28T11:22:22.128Z,0.60
2019-03-28T11:23:22.092Z,0.60
2019-03-28T11:24:22.086Z,0.50
2019-03-28T11:25:22.074Z,0.60
2019-03-28T11:26:22.059Z,0.80
2019-03-28T11:27:23.554Z,0.90
2019-03-28T11:28:23.526Z,0.90
2019-03-28T11:29:22.175Z,0.60
2019-03-28T11:30:22.015Z,0.60
2019-03-28T11:31:22.035Z,0.50
2019-03-28T11:32:22.001Z,0.50
2019-03-28T11:33:22.793Z,0.70
2019-03-28T11:34:22.257Z,0.70
2019-03-28T11:35:21.960Z,0.70
2019-03-28T11:36:21.978Z,0.50
2019-03-28T11:37:26.381Z,0.60
2019-03-28T11:38:22.747Z,0.40
2019-03-28T11:39:22.265Z,0.50
2019-03-28T11:40:24.542Z,0.60
2019-03-28T11:41:22.761Z,0.40
2019-03-28T11:42:21.885Z,0.70
2019-03-28T11:43:21.868Z,0.70
2019-03-28T11:44:22.266Z,0.50
2019-03-28T11:45:21.858Z,0.50
2019-03-28T11:46:21.899Z,0.70
2019-03-28T11:47:22.436Z,0.50
2019-03-28T11:48:21.817Z,0.60
2019-03-28T11:49:21.824Z,0.60
2019-03-28T11:50:21.814Z,0.50
2019-03-28T11:51:21.805Z,0.40
2019-03-28T11:52:21.775Z,0.70
2019-03-28T11:53:21.797Z,0.70
2019-03-28T11:54:21.774Z,0.60
2019-03-28T11:55:21.741Z,0.50
2019-03-28T11:56:21.739Z,0.70
2019-03-28T11:57:22.257Z,0.60
2019-03-28T11:58:21.708Z,0.60
2019-03-28T11:59:21.707Z,0.70
2019-03-28T12:00:22.281Z,0.50
2019-03-28T12:01:21.696Z,0.60
2019-03-28T12:02:21.677Z,0.40
2019-03-28T12:03:22.254Z,0.60
2019-03-28T12:04:21.661Z,0.70
2019-03-28T12:05:21.633Z,0.50
2019-03-28T12:06:21.631Z,0.90
2019-03-28T12:07:21.616Z,0.50
2019-03-28T12:08:21.612Z,1.00
2019-03-28T12:09:21.597Z,0.50
2019-03-28T12:10:21.577Z,0.60
2019-03-28T12:11:21.564Z,0.70
2019-03-28T12:12:22.275Z,0.60
2019-03-28T12:13:21.554Z,0.80
2019-03-28T12:14:21.561Z,0.40
2019-03-28T12:15:21.584Z,0.60
2019-03-28T12:16:21.510Z,0.70
2019-03-28T12:17:22.258Z,0.60
2019-03-28T12:18:24.847Z,0.60
2019-03-28T12:19:21.506Z,0.60
2019-03-28T12:20:21.471Z,0.60
2019-03-28T12:21:21.465Z,0.50
2019-03-28T12:22:21.450Z,0.60
2019-03-28T12:23:22.389Z,0.60
2019-03-28T12:24:21.451Z,0.80
2019-03-28T12:25:21.432Z,0.50
2019-03-28T12:26:22.270Z,0.50
2019-03-28T12:27:21.394Z,0.60
2019-03-28T12:28:21.411Z,0.60
2019-03-28T12:29:21.447Z,0.40
2019-03-28T12:30:22.268Z,0.60
2019-03-28T12:31:21.445Z,0.50
2019-03-28T12:32:21.356Z,0.40
2019-03-28T12:33:21.328Z,0.70
2019-03-28T12:34:21.780Z,0.70
2019-03-28T12:35:21.323Z,0.60
2019-03-28T12:36:22.253Z,0.70
2019-03-28T12:37:22.266Z,0.40
2019-03-28T12:38:21.285Z,0.70
2019-03-28T12:39:21.271Z,0.90
2019-03-28T12:40:21.256Z,0.50
2019-03-28T12:41:21.258Z,0.50
2019-03-28T12:42:21.263Z,0.60
2019-03-28T12:43:21.767Z,0.60
2019-03-28T12:44:21.282Z,0.70
2019-03-28T12:45:21.203Z,0.60
2019-03-28T12:46:21.779Z,0.60
2019-03-28T12:47:21.762Z,0.60
2019-03-28T12:48:21.243Z,0.80
2019-03-28T12:49:21.170Z,0.50
2019-03-28T12:50:21.148Z,0.60
2019-03-28T12:51:22.295Z,0.50
2019-03-28T12:52:21.799Z,0.50
2019-03-28T12:53:21.134Z,0.60
2019-03-28T12:54:21.119Z,0.60
2019-03-28T12:55:21.100Z,0.70
2019-03-28T12:56:21.084Z,0.60
2019-03-28T12:57:21.077Z,0.50
2019-03-28T12:58:21.092Z,0.50
2019-03-28T12:59:21.094Z,0.70
2019-03-28T13:00:21.760Z,0.80
2019-03-28T13:01:21.038Z,0.70
2019-03-28T13:02:30.043Z,0.80
2019-03-28T13:03:21.013Z,0.70
2019-03-28T13:04:21.284Z,0.90
2019-03-28T13:05:20.999Z,0.90
2019-03-28T13:06:20.978Z,1.10
2019-03-28T13:07:20.999Z,1.10
2019-03-28T13:08:20.946Z,0.90
2019-03-28T13:09:21.282Z,1.10
2019-03-28T13:10:21.764Z,1.00
2019-03-28T13:11:21.758Z,1.80
2019-03-28T13:12:20.917Z,1.40
2019-03-28T13:13:20.914Z,1.40
2019-03-28T13:14:21.549Z,1.40
2019-03-28T13:15:20.889Z,1.40
2019-03-28T13:16:20.862Z,1.50
2019-03-28T13:17:21.765Z,1.50
2019-03-28T13:18:20.850Z,1.60